sensor_id;sensor_type;location;lat;lon;timestamp;pressure;altitude;pressure_sealevel;temperature;humidity
10466;BME280;5280;42.600;23.556;2023-04-08T00:02:16;93488.09;;;4.99;74.48
10466;BME280;5280;42.600;23.556;2023-04-08T00:04:43;93482.84;;;4.99;75.13
10466;BME280;5280;42.600;23.556;2023-04-08T00:07:10;93475.31;;;4.93;75.11
10466;BME280;5280;42.600;23.556;2023-04-08T00:09:37;93478.63;;;4.97;74.16
10466;BME280;5280;42.600;23.556;2023-04-08T00:12:04;93474.41;;;4.94;73.12
10466;BME280;5280;42.600;23.556;2023-04-08T00:14:33;93490.13;;;4.94;74.03
10466;BME280;5280;42.600;23.556;2023-04-08T00:16:59;93479.31;;;5.00;73.26
10466;BME280;5280;42.600;23.556;2023-04-08T00:19:26;93482.84;;;4.99;73.30
10466;BME280;5280;42.600;23.556;2023-04-08T00:21:53;93482.94;;;4.98;74.18
10466;BME280;5280;42.600;23.556;2023-04-08T00:24:20;93481.16;;;4.98;74.25
10466;BME280;5280;42.600;23.556;2023-04-08T00:26:47;93487.34;;;4.97;74.00
10466;BME280;5280;42.600;23.556;2023-04-08T00:29:14;93478.78;;;4.94;74.15
10466;BME280;5280;42.600;23.556;2023-04-08T00:31:42;93483.88;;;4.97;75.01
10466;BME280;5280;42.600;23.556;2023-04-08T00:34:09;93491.81;;;4.95;75.27
10466;BME280;5280;42.600;23.556;2023-04-08T00:36:36;93480.56;;;4.93;75.14
10466;BME280;5280;42.600;23.556;2023-04-08T00:39:04;93481.53;;;4.92;76.26
10466;BME280;5280;42.600;23.556;2023-04-08T00:41:32;93481.53;;;4.92;77.01
10466;BME280;5280;42.600;23.556;2023-04-08T00:43:59;93462.03;;;4.82;77.44
10466;BME280;5280;42.600;23.556;2023-04-08T00:46:27;93468.19;;;4.81;77.90
10466;BME280;5280;42.600;23.556;2023-04-08T00:48:56;93478.31;;;4.87;78.61
10466;BME280;5280;42.600;23.556;2023-04-08T00:51:22;93476.09;;;4.80;78.24
10466;BME280;5280;42.600;23.556;2023-04-08T00:53:50;93478.66;;;4.81;78.36
10466;BME280;5280;42.600;23.556;2023-04-08T00:56:17;93475.97;;;4.83;78.11
10466;BME280;5280;42.600;23.556;2023-04-08T00:58:46;93476.81;;;4.83;78.88
10466;BME280;5280;42.600;23.556;2023-04-08T01:01:17;93475.09;;;4.82;79.39
10466;BME280;5280;42.600;23.556;2023-04-08T01:03:56;93478.66;;;4.81;79.80
10466;BME280;5280;42.600;23.556;2023-04-08T01:06:29;93453.06;;;4.55;78.91
10466;BME280;5280;42.600;23.556;2023-04-08T01:08:57;93479.16;;;4.72;78.72
10466;BME280;5280;42.600;23.556;2023-04-08T01:11:26;93470.47;;;4.71;78.88
10466;BME280;5280;42.600;23.556;2023-04-08T01:13:56;93492.00;;;4.76;78.29
10466;BME280;5280;42.600;23.556;2023-04-08T01:16:24;93487.75;;;4.74;77.29
10466;BME280;5280;42.600;23.556;2023-04-08T01:18:52;93486.25;;;4.70;78.16
10466;BME280;5280;42.600;23.556;2023-04-08T01:21:22;93497.38;;;4.73;77.80
10466;BME280;5280;42.600;23.556;2023-04-08T01:24:00;93438.31;;;4.38;77.41
10466;BME280;5280;42.600;23.556;2023-04-08T01:26:31;93488.72;;;4.73;77.29
10466;BME280;5280;42.600;23.556;2023-04-08T01:29:00;93482.78;;;4.69;77.38
10466;BME280;5280;42.600;23.556;2023-04-08T01:31:29;93489.47;;;4.75;77.56
10466;BME280;5280;42.600;23.556;2023-04-08T01:33:58;93476.28;;;4.61;77.99
10466;BME280;5280;42.600;23.556;2023-04-08T01:36:27;93488.72;;;4.73;77.99
10466;BME280;5280;42.600;23.556;2023-04-08T01:38:57;93478.47;;;4.68;78.26
10466;BME280;5280;42.600;23.556;2023-04-08T01:41:25;93465.22;;;4.56;77.77
10466;BME280;5280;42.600;23.556;2023-04-08T01:43:55;93485.91;;;4.76;77.47
10466;BME280;5280;42.600;23.556;2023-04-08T01:46:23;93499.84;;;4.76;77.82
10466;BME280;5280;42.600;23.556;2023-04-08T01:48:51;93499.78;;;4.78;78.95
10466;BME280;5280;42.600;23.556;2023-04-08T01:51:20;93489.31;;;4.78;79.37
10466;BME280;5280;42.600;23.556;2023-04-08T01:53:47;93498.09;;;4.77;78.81
10466;BME280;5280;42.600;23.556;2023-04-08T01:56:15;93480.16;;;4.69;77.64
10466;BME280;5280;42.600;23.556;2023-04-08T01:58:46;93501.28;;;4.82;76.73
10466;BME280;5280;42.600;23.556;2023-04-08T02:01:17;93499.41;;;4.84;77.64
10466;BME280;5280;42.600;23.556;2023-04-08T02:03:46;93510.72;;;4.85;76.98
10466;BME280;5280;42.600;23.556;2023-04-08T02:06:13;93513.28;;;4.86;76.91
10466;BME280;5280;42.600;23.556;2023-04-08T02:08:40;93520.53;;;4.81;77.12
10466;BME280;5280;42.600;23.556;2023-04-08T02:11:06;93512.63;;;4.83;77.92
10466;BME280;5280;42.600;23.556;2023-04-08T02:13:33;93510.84;;;4.83;77.40
10466;BME280;5280;42.600;23.556;2023-04-08T02:16:05;93500.09;;;4.72;78.04
10466;BME280;5280;42.600;23.556;2023-04-08T02:18:42;93524.84;;;4.82;77.98
10466;BME280;5280;42.600;23.556;2023-04-08T02:21:13;93520.34;;;4.84;77.46
10466;BME280;5280;42.600;23.556;2023-04-08T02:23:45;93515.22;;;4.83;77.45
10466;BME280;5280;42.600;23.556;2023-04-08T02:26:16;93518.84;;;4.80;77.35
10466;BME280;5280;42.600;23.556;2023-04-08T02:28:44;93512.09;;;4.76;78.32
10466;BME280;5280;42.600;23.556;2023-04-08T02:31:13;93489.38;;;4.61;78.61
10466;BME280;5280;42.600;23.556;2023-04-08T02:33:42;93517.31;;;4.76;79.02
10466;BME280;5280;42.600;23.556;2023-04-08T02:36:10;93507.53;;;4.80;79.41
10466;BME280;5280;42.600;23.556;2023-04-08T02:38:37;93457.88;;;4.47;79.60
10466;BME280;5280;42.600;23.556;2023-04-08T02:41:05;93499.53;;;4.83;78.71
10466;BME280;5280;42.600;23.556;2023-04-08T02:43:32;93502.13;;;4.83;77.84
10466;BME280;5280;42.600;23.556;2023-04-08T02:46:00;93505.34;;;4.88;77.24
10466;BME280;5280;42.600;23.556;2023-04-08T02:48:28;93435.59;;;4.40;76.94
10466;BME280;5280;42.600;23.556;2023-04-08T02:50:56;93502.13;;;4.83;78.19
10466;BME280;5280;42.600;23.556;2023-04-08T02:53:23;93500.59;;;4.78;79.48
10466;BME280;5280;42.600;23.556;2023-04-08T02:55:50;93506.00;;;4.75;79.49
10466;BME280;5280;42.600;23.556;2023-04-08T02:58:17;93504.50;;;4.71;74.82
10466;BME280;5280;42.600;23.556;2023-04-08T03:00:44;93499.78;;;4.78;74.32
10466;BME280;5280;42.600;23.556;2023-04-08T03:03:11;93519.50;;;4.84;74.81
10466;BME280;5280;42.600;23.556;2023-04-08T03:05:41;93506.53;;;4.82;75.43
10466;BME280;5280;42.600;23.556;2023-04-08T03:08:09;93512.16;;;4.90;76.45
10466;BME280;5280;42.600;23.556;2023-04-08T03:10:36;93506.59;;;4.81;77.71
10466;BME280;5280;42.600;23.556;2023-04-08T03:13:03;93509.88;;;4.84;77.92
10466;BME280;5280;42.600;23.556;2023-04-08T03:15:32;93507.84;;;4.89;79.37
10466;BME280;5280;42.600;23.556;2023-04-08T03:17:59;93480.88;;;4.73;78.68
10466;BME280;5280;42.600;23.556;2023-04-08T03:20:26;93449.84;;;4.50;78.71
10466;BME280;5280;42.600;23.556;2023-04-08T03:22:52;93505.41;;;4.86;78.64
10466;BME280;5280;42.600;23.556;2023-04-08T03:25:21;93504.50;;;4.87;79.45
10466;BME280;5280;42.600;23.556;2023-04-08T03:27:47;93492.66;;;4.80;80.57
10466;BME280;5280;42.600;23.556;2023-04-08T03:30:14;93511.56;;;4.85;79.77
10466;BME280;5280;42.600;23.556;2023-04-08T03:32:41;93503.81;;;4.84;78.65
10466;BME280;5280;42.600;23.556;2023-04-08T03:35:08;93509.03;;;4.84;78.80
10466;BME280;5280;42.600;23.556;2023-04-08T03:37:35;93508.03;;;4.86;77.96
10466;BME280;5280;42.600;23.556;2023-04-08T03:40:02;93502.72;;;4.88;78.09
10466;BME280;5280;42.600;23.556;2023-04-08T03:42:31;93508.44;;;4.94;78.65
10466;BME280;5280;42.600;23.556;2023-04-08T03:44:59;93507.84;;;4.89;78.53
10466;BME280;5280;42.600;23.556;2023-04-08T03:47:26;93508.88;;;4.87;79.08
10466;BME280;5280;42.600;23.556;2023-04-08T03:49:53;93511.25;;;4.91;79.88
10466;BME280;5280;42.600;23.556;2023-04-08T03:52:20;93512.84;;;4.94;79.71
10466;BME280;5280;42.600;23.556;2023-04-08T03:54:47;93499.41;;;4.84;78.56
10466;BME280;5280;42.600;23.556;2023-04-08T03:57:14;93492.34;;;4.86;77.86
10466;BME280;5280;42.600;23.556;2023-04-08T03:59:42;93510.91;;;4.97;78.15
10466;BME280;5280;42.600;23.556;2023-04-08T04:02:09;93491.31;;;4.89;78.32
10466;BME280;5280;42.600;23.556;2023-04-08T04:04:35;93506.41;;;4.99;78.97
10466;BME280;5280;42.600;23.556;2023-04-08T04:07:02;93502.47;;;4.92;78.69
10466;BME280;5280;42.600;23.556;2023-04-08T04:09:32;93500.78;;;4.91;78.55
10466;BME280;5280;42.600;23.556;2023-04-08T04:11:59;93505.81;;;4.94;78.33
10466;BME280;5280;42.600;23.556;2023-04-08T04:14:26;93502.13;;;4.83;79.09
10466;BME280;5280;42.600;23.556;2023-04-08T04:16:55;93499.66;;;4.80;79.51
10466;BME280;5280;42.600;23.556;2023-04-08T04:19:21;93510.41;;;4.75;79.56
10466;BME280;5280;42.600;23.556;2023-04-08T04:21:48;93443.19;;;4.44;78.88
10466;BME280;5280;42.600;23.556;2023-04-08T04:24:15;93518.50;;;4.86;79.68
10466;BME280;5280;42.600;23.556;2023-04-08T04:26:42;93498.66;;;4.66;81.11
10466;BME280;5280;42.600;23.556;2023-04-08T04:29:09;93521.53;;;4.78;81.53
10466;BME280;5280;42.600;23.556;2023-04-08T04:31:36;93526.88;;;4.93;80.24
10466;BME280;5280;42.600;23.556;2023-04-08T04:34:04;93505.16;;;4.75;80.87
10466;BME280;5280;42.600;23.556;2023-04-08T04:36:31;93524.50;;;4.88;80.66
10466;BME280;5280;42.600;23.556;2023-04-08T04:38:58;93474.44;;;4.63;80.94
10466;BME280;5280;42.600;23.556;2023-04-08T04:41:25;93519.69;;;4.96;80.62
10466;BME280;5280;42.600;23.556;2023-04-08T04:43:52;93521.72;;;4.91;81.14
10466;BME280;5280;42.600;23.556;2023-04-08T04:46:19;93519.19;;;4.90;81.50
10466;BME280;5280;42.600;23.556;2023-04-08T04:48:46;93516.75;;;4.87;82.34
10466;BME280;5280;42.600;23.556;2023-04-08T04:51:14;93493.50;;;4.81;82.18
10466;BME280;5280;42.600;23.556;2023-04-08T04:53:41;93519.63;;;4.98;82.17
10466;BME280;5280;42.600;23.556;2023-04-08T04:56:08;93520.44;;;4.98;82.91
10466;BME280;5280;42.600;23.556;2023-04-08T04:58:35;93518.44;;;4.88;83.26
10466;BME280;5280;42.600;23.556;2023-04-08T05:01:02;93522.06;;;5.01;83.64
10466;BME280;5280;42.600;23.556;2023-04-08T05:03:28;93527.69;;;4.93;84.34
10466;BME280;5280;42.600;23.556;2023-04-08T05:05:55;93519.69;;;4.96;83.62
10466;BME280;5280;42.600;23.556;2023-04-08T05:08:23;93495.88;;;4.69;84.33
10466;BME280;5280;42.600;23.556;2023-04-08T05:10:51;93522.31;;;4.96;84.68
10466;BME280;5280;42.600;23.556;2023-04-08T05:13:20;93529.97;;;4.99;85.02
10466;BME280;5280;42.600;23.556;2023-04-08T05:15:47;93519.34;;;5.02;85.58
10466;BME280;5280;42.600;23.556;2023-04-08T05:18:13;93525.34;;;5.04;86.20
10466;BME280;5280;42.600;23.556;2023-04-08T05:20:40;93515.44;;;5.09;87.14
10466;BME280;5280;42.600;23.556;2023-04-08T05:23:07;93515.19;;;5.14;86.74
10466;BME280;5280;42.600;23.556;2023-04-08T05:25:35;93526.69;;;5.11;86.88
10466;BME280;5280;42.600;23.556;2023-04-08T05:28:02;93512.22;;;5.20;87.04
10466;BME280;5280;42.600;23.556;2023-04-08T05:30:29;93515.34;;;5.27;86.82
10466;BME280;5280;42.600;23.556;2023-04-08T05:32:56;93519.13;;;5.37;86.99
10466;BME280;5280;42.600;23.556;2023-04-08T05:35:23;93484.66;;;5.29;87.23
10466;BME280;5280;42.600;23.556;2023-04-08T05:37:50;93511.41;;;5.49;88.29
10466;BME280;5280;42.600;23.556;2023-04-08T05:40:17;93504.63;;;5.61;88.27
10466;BME280;5280;42.600;23.556;2023-04-08T05:42:48;93496.19;;;5.70;88.77
10466;BME280;5280;42.600;23.556;2023-04-08T05:45:15;93502.59;;;5.80;88.71
10466;BME280;5280;42.600;23.556;2023-04-08T05:47:42;93505.97;;;5.82;87.41
10466;BME280;5280;42.600;23.556;2023-04-08T05:50:09;93508.53;;;5.98;86.91
10466;BME280;5280;42.600;23.556;2023-04-08T05:52:41;93497.06;;;6.15;86.65
10466;BME280;5280;42.600;23.556;2023-04-08T05:55:08;93498.19;;;6.25;87.11
10466;BME280;5280;42.600;23.556;2023-04-08T05:57:35;93507.75;;;6.40;86.78
10466;BME280;5280;42.600;23.556;2023-04-08T06:00:05;93487.09;;;6.48;86.77
10466;BME280;5280;42.600;23.556;2023-04-08T06:02:32;93496.84;;;6.74;85.38
10466;BME280;5280;42.600;23.556;2023-04-08T06:04:59;93473.28;;;6.73;82.55
10466;BME280;5280;42.600;23.556;2023-04-08T06:07:26;93506.53;;;7.01;82.20
10466;BME280;5280;42.600;23.556;2023-04-08T06:09:52;93485.44;;;7.02;81.17
10466;BME280;5280;42.600;23.556;2023-04-08T06:12:19;93513.78;;;7.24;80.22
10466;BME280;5280;42.600;23.556;2023-04-08T06:14:46;93503.66;;;7.32;78.31
10466;BME280;5280;42.600;23.556;2023-04-08T06:17:15;93486.56;;;7.25;79.10
10466;BME280;5280;42.600;23.556;2023-04-08T06:19:42;93504.22;;;7.50;78.66
10466;BME280;5280;42.600;23.556;2023-04-08T06:22:08;93510.63;;;7.46;77.77
10466;BME280;5280;42.600;23.556;2023-04-08T06:24:35;93493.50;;;7.53;78.12
10466;BME280;5280;42.600;23.556;2023-04-08T06:27:02;93501.03;;;7.71;79.89
10466;BME280;5280;42.600;23.556;2023-04-08T06:29:29;93512.81;;;7.78;76.28
10466;BME280;5280;42.600;23.556;2023-04-08T06:31:56;93510.09;;;7.80;75.53
10466;BME280;5280;42.600;23.556;2023-04-08T06:34:24;93507.47;;;7.93;75.04
10466;BME280;5280;42.600;23.556;2023-04-08T06:36:51;93485.44;;;7.68;75.90
10466;BME280;5280;42.600;23.556;2023-04-08T06:39:17;93494.06;;;7.70;75.00
10466;BME280;5280;42.600;23.556;2023-04-08T06:41:45;93514.09;;;7.86;75.33
10466;BME280;5280;42.600;23.556;2023-04-08T06:44:12;93462.81;;;7.66;74.93
10466;BME280;5280;42.600;23.556;2023-04-08T06:46:39;93516.75;;;7.98;74.42
10466;BME280;5280;42.600;23.556;2023-04-08T06:49:06;93511.97;;;7.78;73.83
10466;BME280;5280;42.600;23.556;2023-04-08T06:51:34;93509.78;;;7.72;73.59
10466;BME280;5280;42.600;23.556;2023-04-08T06:54:01;93509.25;;;7.79;74.37
10466;BME280;5280;42.600;23.556;2023-04-08T06:56:27;93505.63;;;7.68;76.44
10466;BME280;5280;42.600;23.556;2023-04-08T06:58:54;93522.78;;;7.73;74.78
10466;BME280;5280;42.600;23.556;2023-04-08T07:01:21;93521.06;;;7.87;74.74
10466;BME280;5280;42.600;23.556;2023-04-08T07:03:49;93511.78;;;7.81;74.77
10466;BME280;5280;42.600;23.556;2023-04-08T07:06:16;93525.47;;;7.99;74.15
10466;BME280;5280;42.600;23.556;2023-04-08T07:08:44;93522.22;;;8.08;74.38
10466;BME280;5280;42.600;23.556;2023-04-08T07:11:11;93531.53;;;8.26;72.62
10466;BME280;5280;42.600;23.556;2023-04-08T07:13:38;93527.31;;;8.23;72.24
10466;BME280;5280;42.600;23.556;2023-04-08T07:16:05;93523.41;;;8.29;72.25
10466;BME280;5280;42.600;23.556;2023-04-08T07:18:32;93530.56;;;8.27;70.67
10466;BME280;5280;42.600;23.556;2023-04-08T07:20:59;93537.75;;;8.38;70.53
10466;BME280;5280;42.600;23.556;2023-04-08T07:23:26;93542.41;;;8.34;69.17
10466;BME280;5280;42.600;23.556;2023-04-08T07:25:54;93519.31;;;8.25;70.34
10466;BME280;5280;42.600;23.556;2023-04-08T07:28:21;93515.84;;;8.37;70.16
10466;BME280;5280;42.600;23.556;2023-04-08T07:30:48;93520.78;;;8.29;70.09
10466;BME280;5280;42.600;23.556;2023-04-08T07:33:15;93534.81;;;8.30;69.87
10466;BME280;5280;42.600;23.556;2023-04-08T07:35:42;93535.72;;;8.16;70.39
10466;BME280;5280;42.600;23.556;2023-04-08T07:38:09;93543.25;;;8.35;71.28
10466;BME280;5280;42.600;23.556;2023-04-08T07:40:37;93510.47;;;8.26;69.70
10466;BME280;5280;42.600;23.556;2023-04-08T07:43:06;93546.00;;;8.46;69.92
10466;BME280;5280;42.600;23.556;2023-04-08T07:45:33;93531.13;;;8.57;70.25
10466;BME280;5280;42.600;23.556;2023-04-08T07:48:00;93546.84;;;8.72;71.04
10466;BME280;5280;42.600;23.556;2023-04-08T07:50:27;93551.28;;;8.71;68.78
10466;BME280;5280;42.600;23.556;2023-04-08T07:52:54;93547.56;;;8.86;69.47
10466;BME280;5280;42.600;23.556;2023-04-08T07:55:21;93542.69;;;8.93;69.57
10466;BME280;5280;42.600;23.556;2023-04-08T07:57:47;93553.88;;;8.96;69.82
10466;BME280;5280;42.600;23.556;2023-04-08T08:00:19;93530.78;;;9.00;69.36
10466;BME280;5280;42.600;23.556;2023-04-08T08:02:46;93546.53;;;9.25;68.73
10466;BME280;5280;42.600;23.556;2023-04-08T08:05:13;93552.53;;;9.27;67.27
10466;BME280;5280;42.600;23.556;2023-04-08T08:07:40;93547.31;;;9.38;67.61
10466;BME280;5280;42.600;23.556;2023-04-08T08:10:07;93554.06;;;9.42;67.18
10466;BME280;5280;42.600;23.556;2023-04-08T08:12:34;93551.72;;;9.50;66.82
10466;BME280;5280;42.600;23.556;2023-04-08T08:15:01;93557.16;;;9.36;67.15
10466;BME280;5280;42.600;23.556;2023-04-08T08:17:29;93556.84;;;9.41;66.45
10466;BME280;5280;42.600;23.556;2023-04-08T08:19:58;93555.75;;;9.43;66.73
10466;BME280;5280;42.600;23.556;2023-04-08T08:22:25;93509.22;;;9.19;67.17
10466;BME280;5280;42.600;23.556;2023-04-08T08:24:54;93565.19;;;9.59;65.33
10466;BME280;5280;42.600;23.556;2023-04-08T08:27:22;93565.47;;;9.67;67.17
10466;BME280;5280;42.600;23.556;2023-04-08T08:29:48;93561.44;;;9.74;66.44
10466;BME280;5280;42.600;23.556;2023-04-08T08:32:15;93560.66;;;9.84;65.69
10466;BME280;5280;42.600;23.556;2023-04-08T08:34:43;93561.28;;;9.88;67.03
10466;BME280;5280;42.600;23.556;2023-04-08T08:37:10;93561.56;;;9.96;67.50
10466;BME280;5280;42.600;23.556;2023-04-08T08:39:37;93554.13;;;9.77;65.43
10466;BME280;5280;42.600;23.556;2023-04-08T08:42:04;93550.72;;;9.88;66.06
10466;BME280;5280;42.600;23.556;2023-04-08T08:44:31;93566.78;;;9.85;66.53
10466;BME280;5280;42.600;23.556;2023-04-08T08:46:58;93562.53;;;9.71;66.75
10466;BME280;5280;42.600;23.556;2023-04-08T08:49:25;93560.84;;;9.70;67.48
10466;BME280;5280;42.600;23.556;2023-04-08T08:51:54;93545.34;;;9.66;67.88
10466;BME280;5280;42.600;23.556;2023-04-08T08:54:21;93566.16;;;9.81;68.09
10466;BME280;5280;42.600;23.556;2023-04-08T08:56:48;93558.13;;;9.83;68.36
10466;BME280;5280;42.600;23.556;2023-04-08T08:59:14;93571.81;;;9.88;67.05
10466;BME280;5280;42.600;23.556;2023-04-08T09:01:41;93571.91;;;9.75;67.90
10466;BME280;5280;42.600;23.556;2023-04-08T09:04:10;93565.34;;;9.81;68.21
10466;BME280;5280;42.600;23.556;2023-04-08T09:06:39;93573.97;;;9.83;68.37
10466;BME280;5280;42.600;23.556;2023-04-08T09:09:07;93578.34;;;9.95;67.01
10466;BME280;5280;42.600;23.556;2023-04-08T09:11:38;93586.81;;;10.11;69.10
10466;BME280;5280;42.600;23.556;2023-04-08T09:14:16;93582.59;;;10.32;66.81
10466;BME280;5280;42.600;23.556;2023-04-08T09:16:43;93558.41;;;10.50;64.83
10466;BME280;5280;42.600;23.556;2023-04-08T09:19:11;93561.91;;;10.26;65.43
10466;BME280;5280;42.600;23.556;2023-04-08T09:21:38;93577.59;;;10.52;65.25
10466;BME280;5280;42.600;23.556;2023-04-08T09:24:08;93571.03;;;10.57;62.50
10466;BME280;5280;42.600;23.556;2023-04-08T09:26:37;93517.88;;;10.16;63.88
10466;BME280;5280;42.600;23.556;2023-04-08T09:29:07;93553.97;;;10.50;63.83
10466;BME280;5280;42.600;23.556;2023-04-08T09:31:35;93576.22;;;10.70;60.94
10466;BME280;5280;42.600;23.556;2023-04-08T09:34:09;93576.13;;;10.83;60.89
10466;BME280;5280;42.600;23.556;2023-04-08T09:36:37;93581.06;;;10.98;62.07
10466;BME280;5280;42.600;23.556;2023-04-08T09:39:06;93574.09;;;11.19;57.83
10466;BME280;5280;42.600;23.556;2023-04-08T09:41:34;93580.34;;;11.30;58.19
10466;BME280;5280;42.600;23.556;2023-04-08T09:44:03;93558.94;;;11.33;60.39
10466;BME280;5280;42.600;23.556;2023-04-08T09:46:35;93574.69;;;11.45;57.19
10466;BME280;5280;42.600;23.556;2023-04-08T09:49:09;93566.63;;;11.47;58.57
10466;BME280;5280;42.600;23.556;2023-04-08T09:51:39;93572.72;;;11.70;59.33
10466;BME280;5280;42.600;23.556;2023-04-08T09:54:13;93565.72;;;11.91;58.03
10466;BME280;5280;42.600;23.556;2023-04-08T09:56:43;93563.59;;;12.05;55.94
10466;BME280;5280;42.600;23.556;2023-04-08T09:59:14;93554.25;;;12.01;56.54
10466;BME280;5280;42.600;23.556;2023-04-08T10:01:46;93565.56;;;12.03;56.83
10466;BME280;5280;42.600;23.556;2023-04-08T10:04:18;93550.44;;;11.94;57.39
10466;BME280;5280;42.600;23.556;2023-04-08T10:06:51;93552.69;;;11.99;57.46
10466;BME280;5280;42.600;23.556;2023-04-08T10:09:21;93558.84;;;11.99;57.62
10466;BME280;5280;42.600;23.556;2023-04-08T10:11:49;93544.91;;;11.86;56.75
10466;BME280;5280;42.600;23.556;2023-04-08T10:14:16;93543.94;;;11.87;57.64
10466;BME280;5280;42.600;23.556;2023-04-08T10:16:43;93533.50;;;12.06;57.77
10466;BME280;5280;42.600;23.556;2023-04-08T10:19:36;93544.06;;;12.18;54.79
10466;BME280;5280;42.600;23.556;2023-04-08T10:22:44;93534.94;;;12.11;55.65
10466;BME280;5280;42.600;23.556;2023-04-08T10:25:32;93538.00;;;12.27;56.17
10466;BME280;5280;42.600;23.556;2023-04-08T10:27:59;93536.53;;;12.34;52.73
10466;BME280;5280;42.600;23.556;2023-04-08T10:30:42;93545.06;;;12.37;53.57
10466;BME280;5280;42.600;23.556;2023-04-08T10:33:10;93539.59;;;12.50;52.74
10466;BME280;5280;42.600;23.556;2023-04-08T10:35:42;93526.78;;;12.34;51.58
10466;BME280;5280;42.600;23.556;2023-04-08T10:38:11;93530.97;;;12.37;52.88
10466;BME280;5280;42.600;23.556;2023-04-08T10:40:40;93530.13;;;12.57;52.24
10466;BME280;5280;42.600;23.556;2023-04-08T10:43:08;93531.88;;;12.47;50.89
10466;BME280;5280;42.600;23.556;2023-04-08T10:45:36;93526.41;;;12.60;52.36
10466;BME280;5280;42.600;23.556;2023-04-08T10:48:13;93525.47;;;12.70;52.21
10466;BME280;5280;42.600;23.556;2023-04-08T10:50:42;93526.03;;;12.94;52.75
10466;BME280;5280;42.600;23.556;2023-04-08T10:53:09;93526.66;;;13.08;50.03
10466;BME280;5280;42.600;23.556;2023-04-08T10:55:37;93511.06;;;13.14;49.69
10466;BME280;5280;42.600;23.556;2023-04-08T10:58:09;93516.94;;;13.18;50.79
10466;BME280;5280;42.600;23.556;2023-04-08T11:00:38;93513.16;;;13.20;50.69
10466;BME280;5280;42.600;23.556;2023-04-08T11:03:07;93510.16;;;13.04;49.06
10466;BME280;5280;42.600;23.556;2023-04-08T11:05:35;93500.59;;;13.13;51.14
10466;BME280;5280;42.600;23.556;2023-04-08T11:08:02;93495.00;;;13.16;50.81
10466;BME280;5280;42.600;23.556;2023-04-08T11:10:30;93506.41;;;13.37;50.97
10466;BME280;5280;42.600;23.556;2023-04-08T11:13:02;93494.41;;;13.43;50.39
10466;BME280;5280;42.600;23.556;2023-04-08T11:15:30;93483.66;;;13.44;49.63
10466;BME280;5280;42.600;23.556;2023-04-08T11:17:57;93491.44;;;13.36;49.56
10466;BME280;5280;42.600;23.556;2023-04-08T11:20:25;93479.47;;;13.51;49.50
10466;BME280;5280;42.600;23.556;2023-04-08T11:22:52;93482.13;;;13.51;49.90
10466;BME280;5280;42.600;23.556;2023-04-08T11:25:19;93476.81;;;13.51;50.05
10466;BME280;5280;42.600;23.556;2023-04-08T11:27:46;93481.72;;;13.65;48.74
10466;BME280;5280;42.600;23.556;2023-04-08T11:30:15;93486.16;;;13.55;49.29
10466;BME280;5280;42.600;23.556;2023-04-08T11:32:43;93478.06;;;13.57;49.37
10466;BME280;5280;42.600;23.556;2023-04-08T11:35:10;93486.34;;;13.63;48.09
10466;BME280;5280;42.600;23.556;2023-04-08T11:37:37;93485.63;;;13.61;46.29
10466;BME280;5280;42.600;23.556;2023-04-08T11:40:09;93481.03;;;13.54;47.97
10466;BME280;5280;42.600;23.556;2023-04-08T11:42:37;93480.00;;;13.45;47.51
10466;BME280;5280;42.600;23.556;2023-04-08T11:45:09;93480.97;;;13.34;48.80
10466;BME280;5280;42.600;23.556;2023-04-08T11:47:37;93483.06;;;13.10;48.61
10466;BME280;5280;42.600;23.556;2023-04-08T11:50:07;93472.38;;;12.91;48.06
10466;BME280;5280;42.600;23.556;2023-04-08T11:52:44;93480.97;;;12.74;48.91
10466;BME280;5280;42.600;23.556;2023-04-08T11:55:21;93469.31;;;12.65;48.44
10466;BME280;5280;42.600;23.556;2023-04-08T11:57:48;93463.91;;;12.67;48.29
10466;BME280;5280;42.600;23.556;2023-04-08T12:00:15;93471.69;;;12.59;47.77
10466;BME280;5280;42.600;23.556;2023-04-08T12:02:42;93479.69;;;12.68;47.90
10466;BME280;5280;42.600;23.556;2023-04-08T12:05:10;93481.56;;;12.57;47.39
10466;BME280;5280;42.600;23.556;2023-04-08T12:07:38;93480.94;;;12.64;47.50
10466;BME280;5280;42.600;23.556;2023-04-08T12:10:06;93468.91;;;12.60;46.31
10466;BME280;5280;42.600;23.556;2023-04-08T12:12:33;93477.88;;;12.69;46.50
10466;BME280;5280;42.600;23.556;2023-04-08T12:15:00;93427.38;;;12.40;44.79
10466;BME280;5280;42.600;23.556;2023-04-08T12:17:27;93477.81;;;12.59;44.75
10466;BME280;5280;42.600;23.556;2023-04-08T12:19:54;93463.84;;;12.57;44.84
10466;BME280;5280;42.600;23.556;2023-04-08T12:22:22;93466.56;;;12.46;45.49
10466;BME280;5280;42.600;23.556;2023-04-08T12:24:50;93454.81;;;12.39;45.97
10466;BME280;5280;42.600;23.556;2023-04-08T12:27:16;93474.06;;;12.41;44.94
10466;BME280;5280;42.600;23.556;2023-04-08T12:29:43;93473.09;;;12.21;48.81
10466;BME280;5280;42.600;23.556;2023-04-08T12:32:10;93470.91;;;11.85;49.83
10466;BME280;5280;42.600;23.556;2023-04-08T12:34:37;93476.13;;;11.75;50.91
10466;BME280;5280;42.600;23.556;2023-04-08T12:37:04;93470.34;;;11.59;51.91
10466;BME280;5280;42.600;23.556;2023-04-08T12:39:33;93467.38;;;11.41;52.15
10466;BME280;5280;42.600;23.556;2023-04-08T12:42:00;93471.63;;;11.33;53.62
10466;BME280;5280;42.600;23.556;2023-04-08T12:44:26;93469.38;;;11.17;54.38
10466;BME280;5280;42.600;23.556;2023-04-08T12:46:53;93465.19;;;11.14;55.08
10466;BME280;5280;42.600;23.556;2023-04-08T12:49:20;93469.75;;;11.01;54.09
10466;BME280;5280;42.600;23.556;2023-04-08T12:51:47;93473.38;;;10.89;55.29
10466;BME280;5280;42.600;23.556;2023-04-08T12:54:14;93452.44;;;10.86;55.57
10466;BME280;5280;42.600;23.556;2023-04-08T12:56:43;93455.34;;;11.05;53.98
10466;BME280;5280;42.600;23.556;2023-04-08T12:59:10;93452.44;;;11.08;53.61
10466;BME280;5280;42.600;23.556;2023-04-08T13:01:37;93423.72;;;11.04;54.06
10466;BME280;5280;42.600;23.556;2023-04-08T13:04:04;93420.69;;;11.19;53.71
10466;BME280;5280;42.600;23.556;2023-04-08T13:06:31;93431.88;;;11.55;48.48
10466;BME280;5280;42.600;23.556;2023-04-08T13:08:58;93399.34;;;11.64;48.31
10466;BME280;5280;42.600;23.556;2023-04-08T13:11:25;93424.38;;;12.13;47.07
10466;BME280;5280;42.600;23.556;2023-04-08T13:13:53;93420.50;;;12.37;48.58